createdAt,value
2018-06-17T00:00:41.396Z,22.24
2018-06-17T00:01:51.215Z,22.29
2018-06-17T00:03:01.298Z,22.26
2018-06-17T00:04:11.116Z,22.2
2018-06-17T00:05:21.190Z,22.24
2018-06-17T00:06:31.023Z,22.22
2018-06-17T00:07:40.841Z,22.16
2018-06-17T00:08:50.665Z,22.12
2018-06-17T00:10:00.737Z,22.09
2018-06-17T00:11:10.287Z,22.08
2018-06-17T00:12:20.355Z,22.04
2018-06-17T00:13:30.193Z,21.97
2018-06-17T00:14:40.266Z,22.09
2018-06-17T00:15:50.345Z,21.99
2018-06-17T00:17:00.434Z,21.97
2018-06-17T00:18:10.522Z,22
2018-06-17T00:19:20.331Z,22.07
2018-06-17T00:20:30.146Z,21.99
2018-06-17T00:21:40.025Z,22.09
2018-06-17T00:22:50.155Z,21.99
2018-06-17T00:23:59.969Z,21.99
2018-06-17T00:25:10.043Z,22.09
2018-06-17T00:26:20.112Z,21.99
2018-06-17T00:27:30.204Z,22.07
2018-06-17T00:28:40.288Z,21.94
2018-06-17T00:29:50.095Z,22.04
2018-06-17T00:30:59.906Z,22.04
2018-06-17T00:32:09.719Z,21.97
2018-06-17T00:33:19.804Z,22.08
2018-06-17T00:34:29.948Z,21.99
2018-06-17T00:35:40.021Z,22.07
2018-06-17T00:36:50.100Z,22
2018-06-17T00:38:00.164Z,22
2018-06-17T00:39:10.340Z,21.96
2018-06-17T00:40:20.189Z,21.94
2018-06-17T00:41:30.274Z,22.07
2018-06-17T00:42:40.094Z,21.99
2018-06-17T00:43:50.180Z,22.11
2018-06-17T00:45:00.028Z,21.99
2018-06-17T00:46:10.119Z,22.11
2018-06-17T00:47:20.396Z,21.97
2018-06-17T00:48:30.529Z,22.11
2018-06-17T00:49:40.622Z,21.97
2018-06-17T00:50:50.700Z,22.11
2018-06-17T00:52:00.826Z,22.11
2018-06-17T00:53:10.640Z,22.05
2018-06-17T00:54:20.730Z,22.05
2018-06-17T00:55:30.799Z,21.99
2018-06-17T00:56:40.604Z,21.99
2018-06-17T00:57:50.757Z,22.08
2018-06-17T00:59:00.580Z,22.11
2018-06-17T01:00:10.637Z,21.99
2018-06-17T01:01:20.711Z,21.96
2018-06-17T01:02:30.786Z,22.04
2018-06-17T01:03:40.922Z,22.07
2018-06-17T01:04:51.047Z,21.99
2018-06-17T01:06:01.111Z,21.94
2018-06-17T01:07:11.178Z,21.97
2018-06-17T01:08:21.237Z,21.89
2018-06-17T01:09:31.370Z,21.89
2018-06-17T01:10:41.451Z,21.86
2018-06-17T01:11:51.270Z,21.82
2018-06-17T01:13:01.335Z,21.85
2018-06-17T01:14:11.416Z,21.82
2018-06-17T01:15:21.488Z,21.78
2018-06-17T01:16:31.560Z,21.74
2018-06-17T01:17:41.363Z,21.8
2018-06-17T01:18:51.267Z,21.74
2018-06-17T01:20:01.523Z,21.7
2018-06-17T01:21:11.599Z,21.71
2018-06-17T01:22:21.420Z,21.73
2018-06-17T01:23:31.500Z,21.64
2018-06-17T01:24:41.315Z,21.59
2018-06-17T01:25:51.119Z,21.7
2018-06-17T01:27:01.247Z,21.59
2018-06-17T01:28:11.339Z,21.7
2018-06-17T01:29:21.415Z,21.59
2018-06-17T01:30:31.226Z,21.59
2018-06-17T01:31:41.042Z,21.67
2018-06-17T01:32:51.115Z,21.62
2018-06-17T01:34:01.177Z,21.64
2018-06-17T01:35:11.237Z,21.58
2018-06-17T01:36:21.304Z,21.59
2018-06-17T01:37:31.382Z,21.67
2018-06-17T01:38:40.949Z,21.62
2018-06-17T01:39:51.027Z,21.59
2018-06-17T01:41:01.093Z,21.59
2018-06-17T01:42:11.178Z,21.64
2018-06-17T01:43:21.000Z,21.71
2018-06-17T01:44:31.121Z,21.71
2018-06-17T01:45:41.208Z,21.74
2018-06-17T01:46:51.279Z,21.74
2018-06-17T01:48:01.338Z,21.61
2018-06-17T01:49:11.403Z,21.71
2018-06-17T01:50:21.484Z,21.7
2018-06-17T01:51:31.573Z,21.66
2018-06-17T01:52:41.660Z,21.58
2018-06-17T01:53:51.734Z,21.68
2018-06-17T01:55:01.542Z,21.62
2018-06-17T01:56:11.692Z,21.59
2018-06-17T01:57:21.769Z,21.62
2018-06-17T01:58:31.841Z,21.62
2018-06-17T01:59:41.919Z,21.56
2018-06-17T02:00:51.727Z,21.64
2018-06-17T02:02:01.549Z,21.67
2018-06-17T02:03:11.624Z,21.66
2018-06-17T02:04:21.445Z,21.53
2018-06-17T02:05:31.507Z,21.55
2018-06-17T02:06:41.321Z,21.58
2018-06-17T02:07:51.129Z,21.59
2018-06-17T02:09:01.196Z,21.52
2018-06-17T02:10:11.274Z,21.53
2018-06-17T02:11:21.337Z,21.62
2018-06-17T02:12:31.408Z,21.58
2018-06-17T02:13:41.474Z,21.55
2018-06-17T02:14:51.552Z,21.61
2018-06-17T02:16:01.623Z,21.64
2018-06-17T02:17:11.440Z,21.52
2018-06-17T02:18:21.251Z,21.59
2018-06-17T02:19:31.065Z,21.56
2018-06-17T02:20:41.127Z,21.55
2018-06-17T02:21:50.942Z,21.51
2018-06-17T02:23:00.744Z,21.59
2018-06-17T02:24:10.834Z,21.66
2018-06-17T02:25:20.922Z,21.64
2018-06-17T02:26:30.727Z,21.68
2018-06-17T02:27:40.550Z,21.58
2018-06-17T02:28:50.363Z,21.62
2018-06-17T02:30:00.184Z,21.62
2018-06-17T02:31:09.997Z,21.61
2018-06-17T02:32:20.088Z,21.64
2018-06-17T02:33:29.896Z,21.67
2018-06-17T02:34:40.016Z,21.71
2018-06-17T02:35:50.095Z,21.67
2018-06-17T02:37:00.183Z,21.71
2018-06-17T02:38:10.004Z,21.74
2018-06-17T02:39:19.824Z,21.76
2018-06-17T02:40:29.896Z,21.78
2018-06-17T02:41:39.974Z,21.76
2018-06-17T02:42:49.781Z,21.74
2018-06-17T02:43:59.912Z,21.76
2018-06-17T02:45:09.985Z,21.71
2018-06-17T02:46:20.066Z,21.68
2018-06-17T02:47:30.136Z,21.68
2018-06-17T02:48:40.229Z,21.76
2018-06-17T02:49:50.341Z,21.82
2018-06-17T02:51:00.422Z,21.85
2018-06-17T02:52:10.504Z,21.85
2018-06-17T02:53:20.342Z,21.73
2018-06-17T02:54:30.411Z,21.89
2018-06-17T02:55:40.724Z,21.96
2018-06-17T02:56:50.793Z,21.86
2018-06-17T02:58:00.857Z,21.93
2018-06-17T02:59:10.688Z,21.89
2018-06-17T03:00:20.791Z,21.86
2018-06-17T03:01:31.185Z,21.89
2018-06-17T03:02:41.082Z,21.9
2018-06-17T03:34:55.718Z,20.57
2018-06-17T03:36:05.774Z,20.68
2018-06-17T03:37:15.833Z,20.51
2018-06-17T03:38:25.637Z,20.6
2018-06-17T03:39:35.444Z,20.68
2018-06-17T03:40:45.512Z,20.68
2018-06-17T03:41:55.570Z,20.86
2018-06-17T03:43:05.383Z,20.9
2018-06-17T03:44:15.181Z,20.9
2018-06-17T03:45:25.245Z,21.08
2018-06-17T03:46:35.121Z,21.22
2018-06-17T03:47:45.188Z,21.21
2018-06-17T03:48:55.325Z,21.38
2018-06-17T03:50:05.396Z,21.55
2018-06-17T03:51:15.474Z,21.7
2018-06-17T03:52:25.570Z,21.83
2018-06-17T03:53:35.658Z,22.02
2018-06-17T03:54:45.720Z,22
2018-06-17T03:55:55.528Z,22.11
2018-06-17T03:57:05.604Z,22.22
2018-06-17T03:58:15.403Z,22.14
2018-06-17T03:59:25.477Z,22.31
2018-06-17T04:00:35.557Z,22.36
2018-06-17T04:01:45.643Z,22.41
2018-06-17T04:02:55.709Z,22.41
2018-06-17T04:04:05.889Z,22.45
2018-06-17T04:05:16.215Z,22.48
2018-06-17T04:06:26.024Z,22.59
2018-06-17T04:07:36.095Z,22.61
2018-06-17T04:08:46.171Z,22.73
2018-06-17T04:09:56.019Z,22.73
2018-06-17T04:11:05.570Z,22.79
2018-06-17T04:12:15.636Z,22.91
2018-06-17T04:13:25.703Z,22.92
2018-06-17T04:14:35.790Z,22.91
2018-06-17T04:15:45.931Z,23.07
2018-06-17T04:16:55.994Z,23.09
2018-06-17T04:18:06.091Z,23.5
2018-06-17T04:19:15.907Z,24.83
2018-06-17T04:20:25.729Z,26.39
2018-06-17T04:21:35.285Z,27.62
2018-06-17T04:22:45.373Z,28.55
2018-06-17T04:23:55.453Z,29.45
2018-06-17T04:25:05.595Z,30.11
2018-06-17T04:26:15.668Z,30.63
2018-06-17T04:27:25.749Z,31.15
2018-06-17T04:28:35.820Z,31.53
2018-06-17T04:29:45.897Z,31.87
2018-06-17T04:30:55.983Z,32.17
2018-06-17T04:32:05.806Z,32.49
2018-06-17T04:33:15.896Z,32.64
2018-06-17T04:34:25.704Z,32.93
2018-06-17T04:35:35.510Z,33.21
2018-06-17T04:36:45.597Z,33.37
2018-06-17T04:37:55.668Z,33.58
2018-06-17T04:39:05.753Z,33.73
2018-06-17T04:40:15.832Z,34.02
2018-06-17T04:41:25.959Z,34.05
2018-06-17T04:42:35.514Z,34.24
2018-06-17T04:43:45.593Z,34.41
2018-06-17T04:44:55.690Z,34.61
2018-06-17T04:46:05.769Z,34.78
2018-06-17T04:47:15.314Z,34.99
2018-06-17T04:48:25.162Z,35.11
2018-06-17T04:49:35.327Z,35.12
2018-06-17T04:50:45.467Z,35.18
2018-06-17T04:51:55.542Z,35.33
2018-06-17T04:53:05.627Z,35.5
2018-06-17T04:54:15.723Z,35.5
2018-06-17T04:55:25.804Z,35.53
2018-06-17T04:56:35.873Z,35.57
2018-06-17T04:57:45.957Z,35.76
2018-06-17T04:58:56.048Z,35.77
2018-06-17T05:00:06.323Z,35.83
2018-06-17T05:01:16.473Z,35.84
2018-06-17T05:02:26.554Z,36.04
2018-06-17T05:03:36.112Z,36.08
2018-06-17T05:04:46.211Z,36.21
2018-06-17T05:05:56.292Z,36.25
2018-06-17T05:07:06.370Z,36.19
2018-06-17T05:08:16.449Z,36.26
2018-06-17T05:09:26.524Z,36.33
2018-06-17T05:10:36.618Z,36.24
2018-06-17T05:11:46.420Z,36.37
2018-06-17T05:12:56.229Z,36.37
2018-06-17T05:14:06.352Z,36.43
2018-06-17T05:15:16.450Z,36.37
2018-06-17T05:16:26.538Z,36.49
2018-06-17T05:17:36.618Z,36.51
2018-06-17T05:18:46.441Z,36.44
2018-06-17T05:19:56.523Z,36.49
2018-06-17T05:21:06.373Z,36.53
2018-06-17T05:22:16.452Z,36.52
2018-06-17T05:23:26.269Z,36.63
2018-06-17T05:24:36.094Z,36.59
2018-06-17T05:25:46.179Z,36.52
2018-06-17T05:26:56.273Z,36.53
2018-06-17T05:28:06.079Z,36.49
2018-06-17T05:29:15.899Z,36.51
2018-06-17T05:30:25.976Z,36.44
2018-06-17T05:31:36.054Z,36.43
2018-06-17T05:32:46.138Z,36.56
2018-06-17T05:33:56.454Z,36.56
2018-06-17T05:35:06.286Z,36.51
2018-06-17T05:36:16.112Z,36.53
2018-06-17T05:37:26.187Z,36.58
2018-06-17T05:38:36.251Z,36.53
2018-06-17T05:39:46.056Z,36.52
2018-06-17T05:40:55.892Z,36.49
2018-06-17T05:42:05.985Z,36.34
2018-06-17T05:43:15.798Z,36.3
2018-06-17T05:44:25.612Z,36.28
2018-06-17T05:45:35.715Z,36.33
2018-06-17T05:46:45.782Z,36.3
2018-06-17T05:47:55.342Z,36.24
2018-06-17T05:49:05.421Z,36.18
2018-06-17T05:50:15.246Z,36.18
2018-06-17T05:51:25.416Z,36.19
2018-06-17T05:52:35.502Z,36.19
2018-06-17T05:53:45.070Z,36.08
2018-06-17T05:54:55.215Z,35.96
2018-06-17T05:56:05.309Z,35.95
2018-06-17T05:57:15.392Z,35.83
2018-06-17T05:58:25.504Z,35.74
2018-06-17T05:59:35.321Z,35.65
2018-06-17T06:00:45.411Z,35.53
2018-06-17T06:01:55.234Z,35.45
2018-06-17T06:03:05.319Z,35.31
2018-06-17T06:04:15.409Z,35.3
2018-06-17T06:05:25.495Z,35.26
2018-06-17T06:06:35.314Z,35.11
2018-06-17T06:07:45.128Z,35.09
2018-06-17T06:08:55.213Z,34.93
2018-06-17T06:10:05.316Z,34.97
2018-06-17T06:11:15.140Z,34.99
2018-06-17T06:12:24.725Z,34.75
2018-06-17T06:13:34.860Z,34.59
2018-06-17T06:14:44.674Z,34.43
2018-06-17T06:15:54.756Z,34.33
2018-06-17T06:17:04.307Z,34.17
2018-06-17T06:18:14.399Z,34.18
2018-06-17T06:19:24.469Z,34.03
2018-06-17T06:20:34.552Z,33.93
2018-06-17T06:21:44.614Z,33.92
2018-06-17T06:22:54.430Z,33.92
2018-06-17T06:24:04.559Z,33.74
2018-06-17T06:25:14.428Z,33.58
2018-06-17T06:26:24.517Z,33.56
2018-06-17T06:27:34.369Z,33.43
2018-06-17T06:28:44.433Z,33.2
2018-06-17T06:29:54.263Z,33.18
2018-06-17T06:31:04.555Z,33.16
2018-06-17T06:32:14.430Z,33.05
2018-06-17T06:33:24.518Z,32.9
2018-06-17T06:34:34.618Z,32.84
2018-06-17T06:35:44.502Z,32.76
2018-06-17T06:36:54.598Z,32.68
2018-06-17T06:38:04.414Z,32.61
2018-06-17T06:39:14.217Z,32.49
2018-06-17T06:40:24.027Z,32.45
2018-06-17T06:41:34.123Z,32.37
2018-06-17T06:42:44.017Z,32.39
2018-06-17T06:43:54.091Z,32.31
2018-06-17T06:45:03.919Z,32.23
2018-06-17T06:46:14.016Z,32.3
2018-06-17T06:47:24.097Z,32.27
2018-06-17T06:48:33.916Z,32.23
2018-06-17T06:49:43.980Z,32.09
2018-06-17T06:50:54.217Z,32.13
2018-06-17T06:52:04.618Z,31.97
2018-06-17T06:53:14.697Z,31.9
2018-06-17T06:54:24.793Z,31.72
2018-06-17T06:55:34.922Z,31.58
2018-06-17T06:56:45.020Z,31.55
2018-06-17T06:57:54.582Z,31.47
2018-06-17T06:59:04.435Z,31.38
2018-06-17T07:00:14.504Z,31.28
2018-06-17T07:01:24.606Z,31.23
2018-06-17T07:02:34.420Z,31.21
2018-06-17T07:03:44.240Z,31.06
2018-06-17T07:04:54.369Z,31.08
2018-06-17T07:06:04.440Z,31.01
2018-06-17T07:07:14.255Z,30.91
2018-06-17T07:08:23.798Z,30.82
2018-06-17T07:09:33.873Z,30.77
2018-06-17T07:10:44.012Z,30.82
2018-06-17T07:11:54.098Z,30.7
2018-06-17T07:13:04.175Z,30.48
2018-06-17T07:14:14.246Z,30.42
2018-06-17T07:15:24.344Z,30.35
2018-06-17T07:16:33.925Z,30.25
2018-06-17T07:17:44.026Z,30.14
2018-06-17T07:18:53.571Z,30.19
2018-06-17T07:20:03.406Z,30.07
2018-06-17T07:21:13.497Z,30.03
2018-06-17T07:22:23.595Z,29.94
2018-06-17T07:23:33.396Z,29.89
2018-06-17T07:24:43.470Z,29.89
2018-06-17T07:25:53.296Z,29.87
2018-06-17T07:27:03.117Z,29.79
2018-06-17T07:28:13.269Z,29.87
2018-06-17T07:29:23.084Z,29.81
2018-06-17T07:30:32.681Z,29.79
2018-06-17T07:31:42.507Z,29.75
2018-06-17T07:32:52.623Z,29.84
2018-06-17T07:34:02.734Z,29.79
2018-06-17T07:35:13.827Z,29.77
2018-06-17T07:36:23.663Z,29.79
2018-06-17T07:37:33.762Z,29.77
2018-06-17T07:38:43.570Z,29.85
2018-06-17T07:39:53.646Z,29.88
2018-06-17T07:41:03.741Z,29.84
2018-06-17T07:42:13.838Z,29.85
2018-06-17T07:43:23.647Z,29.95
2018-06-17T07:44:33.746Z,29.91
2018-06-17T07:45:43.863Z,30.03
2018-06-17T07:46:53.678Z,30.03
2018-06-17T07:48:03.763Z,30.07
2018-06-17T07:49:13.824Z,30.13
2018-06-17T07:50:23.684Z,30.1
2018-06-17T07:51:33.771Z,30.18
2018-06-17T07:52:43.843Z,30.1
2018-06-17T07:53:53.676Z,30.18
2018-06-17T07:55:03.492Z,30.14
2018-06-17T07:56:13.313Z,30.09
2018-06-17T07:57:23.398Z,30.07
2018-06-17T07:58:33.490Z,30.18
2018-06-17T07:59:43.580Z,30.18
2018-06-17T08:00:53.691Z,30.21
2018-06-17T08:02:03.783Z,30.13
2018-06-17T08:03:13.868Z,30.19
2018-06-17T08:04:23.949Z,30.25
2018-06-17T08:05:33.756Z,30.29
2018-06-17T08:06:43.327Z,30.42
2018-06-17T08:07:53.423Z,30.48
2018-06-17T08:09:03.513Z,30.54
2018-06-17T08:10:13.598Z,30.66
2018-06-17T08:11:23.412Z,30.67
2018-06-17T08:12:33.248Z,30.78
2018-06-17T08:13:43.348Z,30.82
2018-06-17T08:14:53.156Z,30.99
2018-06-17T08:16:03.325Z,30.93
2018-06-17T08:17:13.132Z,30.97
2018-06-17T08:18:23.225Z,31
2018-06-17T08:19:33.311Z,31.16
2018-06-17T08:20:43.402Z,31.21
2018-06-17T08:21:53.500Z,31.18
2018-06-17T08:23:03.590Z,31.13
2018-06-17T08:24:13.668Z,31.21
2018-06-17T08:25:23.525Z,31.22
2018-06-17T08:26:33.624Z,31.25
2018-06-17T08:27:43.746Z,31.28
2018-06-17T08:28:53.556Z,31.23
2018-06-17T08:30:03.415Z,31.25
2018-06-17T08:31:13.246Z,31.33
2018-06-17T08:32:23.323Z,31.47
2018-06-17T08:33:33.424Z,31.5
2018-06-17T08:34:43.496Z,31.56
2018-06-17T08:35:53.340Z,31.7
2018-06-17T08:37:03.451Z,31.71
2018-06-17T08:38:13.279Z,31.6
2018-06-17T08:39:23.121Z,31.65
2018-06-17T08:40:32.943Z,31.6
2018-06-17T08:41:43.035Z,31.63
2018-06-17T08:42:53.114Z,31.68
2018-06-17T08:44:03.324Z,31.52
2018-06-17T08:45:13.524Z,31.52
2018-06-17T08:46:23.623Z,31.5
2018-06-17T08:47:33.728Z,31.63
2018-06-17T08:48:43.817Z,31.55
2018-06-17T08:49:53.903Z,31.59
2018-06-17T08:51:03.986Z,31.6
2018-06-17T08:52:14.064Z,31.7
2018-06-17T08:53:24.147Z,31.74
2018-06-17T08:54:34.004Z,31.86
2018-06-17T08:55:44.094Z,31.77
2018-06-17T08:56:53.933Z,31.81
2018-06-17T08:58:04.016Z,31.78
2018-06-17T08:59:14.412Z,31.9
2018-06-17T09:00:24.520Z,31.9
2018-06-17T09:01:34.613Z,31.86
2018-06-17T09:02:44.950Z,31.9
2018-06-17T09:03:55.046Z,31.91
2018-06-17T09:05:05.121Z,31.88
2018-06-17T09:06:14.925Z,31.8
2018-06-17T09:07:25.002Z,31.78
2018-06-17T09:08:35.068Z,31.81
2018-06-17T09:09:45.169Z,31.78
2018-06-17T09:10:55.261Z,31.87
2018-06-17T09:12:04.803Z,31.88
2018-06-17T09:13:14.894Z,31.91
2018-06-17T09:14:24.731Z,31.95
2018-06-17T09:15:34.809Z,32.05
2018-06-17T09:16:44.899Z,32.08
2018-06-17T09:17:54.995Z,32.15
2018-06-17T09:19:05.092Z,32.2
2018-06-17T09:20:15.214Z,32.3
2018-06-17T09:21:25.041Z,32.34
2018-06-17T09:22:35.117Z,32.3
2018-06-17T09:23:45.212Z,32.38
2018-06-17T09:24:55.048Z,32.39
2018-06-17T09:26:05.155Z,32.37
2018-06-17T09:27:15.254Z,32.47
2018-06-17T09:28:25.363Z,32.39
2018-06-17T09:29:35.450Z,32.45
2018-06-17T09:30:45.541Z,32.61
2018-06-17T09:31:56.033Z,32.76
2018-06-17T09:33:05.944Z,32.9
2018-06-17T09:34:15.528Z,33.05
2018-06-17T09:35:25.617Z,33.2
2018-06-17T09:36:35.719Z,33.36
2018-06-17T09:37:45.827Z,33.53
2018-06-17T09:38:55.660Z,33.53
2018-06-17T09:40:05.763Z,33.31
2018-06-17T09:41:15.842Z,33.29
2018-06-17T09:42:25.954Z,33.44
2018-06-17T09:43:36.044Z,33.58
2018-06-17T09:44:46.126Z,33.71
2018-06-17T09:45:55.942Z,33.69
2018-06-17T09:47:06.031Z,33.74
2018-06-17T09:48:15.848Z,33.74
2018-06-17T09:49:25.698Z,33.74
2018-06-17T09:50:35.792Z,33.8
2018-06-17T09:51:45.629Z,33.73
2018-06-17T09:52:55.723Z,33.81
2018-06-17T09:54:05.818Z,33.84
2018-06-17T09:55:15.901Z,33.81
2018-06-17T09:56:26.012Z,33.74
2018-06-17T09:57:35.854Z,33.77
2018-06-17T09:58:45.945Z,33.73
2018-06-17T09:59:55.513Z,33.73
2018-06-17T10:01:05.399Z,33.78
2018-06-17T10:02:15.504Z,33.74
2018-06-17T10:03:25.342Z,33.87
2018-06-17T10:04:35.180Z,33.92
2018-06-17T10:05:45.302Z,33.97
2018-06-17T10:06:55.401Z,34
2018-06-17T10:08:05.504Z,33.89
2018-06-17T10:09:15.343Z,33.99
2018-06-17T10:10:25.172Z,33.96
2018-06-17T10:11:35.279Z,34
2018-06-17T10:12:45.413Z,34.06
2018-06-17T10:13:55.512Z,34.12
2018-06-17T10:15:05.607Z,34.06
2018-06-17T10:16:15.452Z,34
2018-06-17T10:17:25.523Z,34.06
2018-06-17T10:18:35.668Z,34.1
2018-06-17T10:19:45.760Z,34.1
2018-06-17T10:20:55.595Z,34.15
2018-06-17T10:22:05.687Z,34.27
2018-06-17T10:23:15.236Z,34.24
2018-06-17T10:24:25.371Z,34.19
2018-06-17T10:25:34.962Z,34.33
2018-06-17T10:26:45.044Z,34.32
2018-06-17T10:27:55.142Z,34.33
2018-06-17T10:29:05.258Z,34.4
2018-06-17T10:30:15.350Z,34.37
2018-06-17T10:31:25.216Z,34.27
2018-06-17T10:32:35.312Z,34.03
2018-06-17T10:33:45.432Z,34.03
2018-06-17T10:34:55.530Z,34.22
2018-06-17T10:36:05.625Z,34.39
2018-06-17T10:37:15.444Z,34.4
2018-06-17T10:38:25.530Z,34.72
2018-06-17T10:39:35.608Z,34.79
2018-06-17T10:40:45.429Z,34.9
2018-06-17T10:41:55.508Z,35.05
2018-06-17T10:43:05.603Z,35.3
2018-06-17T10:44:15.777Z,35.39
2018-06-17T10:45:25.995Z,35.46
2018-06-17T10:46:36.079Z,35.61
2018-06-17T10:47:46.228Z,35.76
2018-06-17T10:48:56.112Z,36.08
2018-06-17T10:50:06.228Z,36.32
2018-06-17T10:51:16.580Z,36.49
2018-06-17T10:52:26.942Z,36.62
2018-06-17T10:53:37.348Z,36.78
2018-06-17T10:54:47.464Z,36.86
2018-06-17T10:55:58.356Z,36.9
2018-06-17T10:57:09.962Z,36.67
2018-06-17T10:58:20.068Z,36.46
2018-06-17T10:59:29.915Z,36.34
2018-06-17T11:00:39.753Z,36.08
2018-06-17T11:01:49.627Z,35.89
2018-06-17T11:02:59.943Z,35.72
2018-06-17T11:04:10.054Z,35.46
2018-06-17T11:05:20.451Z,35.38
2018-06-17T11:06:30.781Z,35.34
2018-06-17T11:07:40.897Z,35.16
2018-06-17T11:08:51.000Z,35.08
2018-06-17T11:10:01.124Z,35.05
2018-06-17T11:11:11.263Z,35.09
2018-06-17T11:12:21.412Z,34.89
2018-06-17T11:13:31.819Z,35.33
2018-06-17T11:14:41.961Z,35.45
2018-06-17T11:15:52.174Z,35.35
2018-06-17T11:17:02.287Z,35.24
2018-06-17T11:18:12.403Z,34.99
2018-06-17T11:19:22.507Z,34.83
2018-06-17T11:20:32.624Z,35.02
2018-06-17T11:21:42.697Z,35.35
2018-06-17T11:22:52.806Z,35.72
2018-06-17T11:24:02.911Z,35.95
2018-06-17T11:25:13.010Z,35.77
2018-06-17T11:26:22.854Z,35.49
2018-06-17T11:27:33.204Z,35.4
2018-06-17T11:28:43.027Z,35.18
2018-06-17T11:29:52.870Z,35.18
2018-06-17T11:31:02.712Z,35.09
2018-06-17T11:32:12.824Z,34.83
2018-06-17T11:33:22.912Z,34.55
2018-06-17T11:34:33.033Z,34.37
2018-06-17T11:35:43.143Z,34.15
2018-06-17T11:36:53.270Z,34.36
2018-06-17T11:38:03.369Z,34.72
2018-06-17T11:39:14.053Z,34.9
2018-06-17T11:40:24.176Z,35.23
2018-06-17T11:41:34.282Z,35.23
2018-06-17T11:42:44.136Z,35.35
2018-06-17T11:43:54.251Z,35.4
2018-06-17T11:45:04.331Z,35.35
2018-06-17T11:46:14.425Z,35.4
2018-06-17T11:47:24.551Z,35.5
2018-06-17T11:48:34.655Z,35.57
2018-06-17T11:49:44.747Z,35.55
2018-06-17T11:50:54.739Z,35.57
2018-06-17T11:52:04.961Z,35.55
2018-06-17T11:53:15.085Z,35.64
2018-06-17T11:54:25.175Z,35.65
2018-06-17T11:55:35.267Z,35.71
2018-06-17T11:56:45.360Z,35.89
2018-06-17T11:57:55.479Z,35.79
2018-06-17T11:59:05.788Z,35.8
2018-06-17T12:00:15.884Z,35.95
2018-06-17T12:01:25.973Z,36.04
2018-06-17T12:02:36.078Z,36.04
2018-06-17T12:03:45.979Z,36.17
2018-06-17T12:04:56.063Z,36.3
2018-06-17T12:06:06.203Z,36.43
2018-06-17T12:07:16.057Z,36.59
2018-06-17T12:08:26.163Z,36.68
2018-06-17T12:09:36.344Z,36.78
2018-06-17T12:10:46.677Z,36.78
2018-06-17T12:11:56.784Z,36.84
2018-06-17T12:13:06.950Z,36.88
2018-06-17T12:14:16.811Z,36.81
2018-06-17T12:15:26.915Z,37
2018-06-17T12:16:37.005Z,37.02
2018-06-17T12:17:46.892Z,37.12
2018-06-17T12:18:57.009Z,37.23
2018-06-17T12:20:07.037Z,37.39
2018-06-17T12:21:17.159Z,37.61
2018-06-17T12:22:26.992Z,37.62
2018-06-17T12:23:36.840Z,37.81
2018-06-17T12:24:46.716Z,38
2018-06-17T12:25:56.838Z,38.22
2018-06-17T12:27:07.008Z,38.28
2018-06-17T12:28:17.116Z,38
2018-06-17T12:29:27.248Z,37.96
2018-06-17T12:30:37.351Z,37.57
2018-06-17T12:31:47.433Z,37.24
2018-06-17T12:32:57.547Z,36.88
2018-06-17T12:34:07.668Z,36.65
2018-06-17T12:35:17.789Z,36.37
2018-06-17T12:36:27.893Z,36.09
2018-06-17T12:37:37.738Z,35.96
2018-06-17T12:38:47.889Z,35.82
2018-06-17T12:39:58.000Z,35.76
2018-06-17T12:41:08.081Z,35.67
2018-06-17T12:42:18.188Z,35.72
2018-06-17T12:43:28.284Z,35.64
2018-06-17T12:44:38.107Z,35.6
2018-06-17T12:45:48.187Z,35.62
2018-06-17T12:46:58.328Z,35.8
2018-06-17T12:48:08.419Z,35.79
2018-06-17T12:49:18.530Z,35.92
2018-06-17T12:50:28.760Z,35.96
2018-06-17T12:51:38.751Z,36.06
2018-06-17T12:52:48.848Z,36.24
2018-06-17T12:53:58.668Z,36.22
2018-06-17T12:55:08.767Z,35.82
2018-06-17T12:56:18.337Z,35.52
2018-06-17T12:57:28.421Z,35.38
2018-06-17T12:58:38.263Z,35.34
2018-06-17T12:59:48.340Z,35.13
2018-06-17T13:00:58.452Z,34.93
2018-06-17T13:02:08.558Z,34.83
2018-06-17T13:03:18.661Z,34.69
2018-06-17T13:04:28.747Z,34.48
2018-06-17T13:05:38.962Z,34.37
2018-06-17T13:06:49.093Z,34.12
2018-06-17T13:07:59.216Z,34.05
2018-06-17T13:09:09.331Z,34.02
2018-06-17T13:10:19.422Z,33.84
2018-06-17T13:11:29.275Z,33.74
2018-06-17T13:12:39.465Z,33.73
2018-06-17T13:13:49.402Z,33.59
2018-06-17T13:14:59.230Z,33.5
2018-06-17T13:16:09.319Z,33.55
2018-06-17T13:17:18.876Z,33.43
2018-06-17T13:18:28.977Z,33.41
2018-06-17T13:19:39.140Z,33.31
2018-06-17T13:20:48.705Z,33.26
2018-06-17T13:21:58.257Z,33.12
2018-06-17T13:23:08.380Z,33.05
2018-06-17T13:24:18.208Z,33.02
2018-06-17T13:25:27.778Z,33.01
2018-06-17T13:26:37.895Z,32.96
2018-06-17T13:27:47.992Z,32.96
2018-06-17T13:28:58.106Z,32.86
2018-06-17T13:30:08.448Z,32.86
2018-06-17T13:31:18.052Z,32.94
2018-06-17T13:32:28.151Z,32.93
2018-06-17T13:33:38.251Z,32.9
2018-06-17T13:34:48.355Z,32.8
2018-06-17T13:35:58.205Z,32.71
2018-06-17T13:37:08.292Z,32.72
2018-06-17T13:38:18.410Z,32.74
2018-06-17T13:39:28.504Z,32.74
2018-06-17T13:40:38.596Z,32.76
2018-06-17T13:41:48.436Z,32.81
2018-06-17T13:42:58.704Z,32.86
2018-06-17T13:44:08.787Z,32.8
2018-06-17T13:45:18.883Z,32.72
2018-06-17T13:46:28.993Z,32.75
2018-06-17T13:47:39.301Z,32.76
2018-06-17T13:48:49.140Z,32.72
2018-06-17T13:49:59.242Z,32.68
2018-06-17T13:51:09.338Z,32.64
2018-06-17T13:52:19.157Z,32.52
2018-06-17T13:53:29.316Z,32.49
2018-06-17T13:54:39.144Z,32.38
2018-06-17T13:55:49.018Z,32.39
2018-06-17T13:56:59.237Z,32.39
2018-06-17T13:58:09.580Z,32.25
2018-06-17T13:59:19.684Z,32.3
2018-06-17T14:00:29.860Z,32.17
2018-06-17T14:01:39.950Z,32.1
2018-06-17T14:02:49.906Z,32.05
2018-06-17T14:04:00.143Z,32.01
2018-06-17T14:05:10.246Z,31.95
2018-06-17T14:06:20.353Z,31.88
2018-06-17T14:07:30.215Z,31.91
2018-06-17T14:08:40.303Z,31.87
2018-06-17T14:09:50.407Z,31.86
2018-06-17T14:11:00.527Z,31.75
2018-06-17T14:12:10.638Z,31.72
2018-06-17T14:13:20.754Z,31.78
2018-06-17T14:14:30.915Z,31.77
2018-06-17T14:15:40.742Z,31.75
2018-06-17T14:16:50.874Z,31.77
2018-06-17T14:18:00.970Z,31.74
2018-06-17T14:19:11.076Z,31.68
2018-06-17T14:20:21.173Z,31.67
2018-06-17T14:21:31.284Z,31.72
2018-06-17T14:22:41.377Z,31.59
2018-06-17T14:23:51.505Z,31.63
2018-06-17T14:25:01.626Z,31.59
2018-06-17T14:26:11.702Z,31.63
2018-06-17T14:27:21.522Z,31.67
2018-06-17T14:28:31.105Z,31.63
2018-06-17T14:29:41.264Z,31.63
2018-06-17T14:30:51.386Z,31.77
2018-06-17T14:32:01.494Z,31.71
2018-06-17T14:33:11.606Z,31.78
2018-06-17T14:34:21.700Z,31.68
2018-06-17T14:35:31.841Z,31.8
2018-06-17T14:36:41.936Z,31.8
2018-06-17T14:37:51.506Z,31.82
2018-06-17T14:39:01.656Z,31.8
2018-06-17T14:40:11.773Z,31.95
2018-06-17T14:41:21.909Z,31.87
2018-06-17T14:42:31.747Z,31.86
2018-06-17T14:43:41.834Z,31.94
2018-06-17T14:44:51.711Z,31.86
2018-06-17T14:46:01.549Z,31.94
2018-06-17T14:47:11.691Z,31.87
2018-06-17T14:48:21.868Z,31.93
2018-06-17T14:49:31.973Z,31.91
2018-06-17T14:50:42.085Z,31.97
2018-06-17T14:51:52.200Z,31.95
2018-06-17T14:53:02.327Z,32.05
2018-06-17T14:54:12.434Z,32.01
2018-06-17T14:55:22.531Z,32.12
2018-06-17T14:56:32.381Z,32.12
2018-06-17T14:57:42.252Z,32.15
2018-06-17T14:58:52.438Z,32.12
2018-06-17T15:00:02.574Z,32.13
2018-06-17T15:01:12.737Z,32.12
2018-06-17T15:02:22.948Z,32.17
2018-06-17T15:03:32.959Z,32.12
2018-06-17T15:04:43.247Z,31.97
2018-06-17T15:05:53.356Z,32.03
2018-06-17T15:07:03.478Z,31.98
2018-06-17T15:08:13.734Z,31.88
2018-06-17T15:09:23.969Z,31.95
2018-06-17T15:10:34.462Z,31.81
2018-06-17T15:11:44.365Z,31.77
2018-06-17T15:12:54.368Z,31.71
2018-06-17T15:14:04.552Z,31.62
2018-06-17T15:15:14.776Z,31.59
2018-06-17T15:16:24.919Z,31.6
2018-06-17T15:17:35.018Z,31.52
2018-06-17T15:18:45.132Z,31.44
2018-06-17T15:19:55.232Z,31.43
2018-06-17T15:21:05.094Z,31.49
2018-06-17T15:22:15.263Z,31.47
2018-06-17T15:23:25.409Z,31.44
2018-06-17T15:24:35.525Z,31.47
2018-06-17T15:25:45.616Z,31.45
2018-06-17T15:26:55.734Z,31.44
2018-06-17T15:28:05.835Z,31.49
2018-06-17T15:29:15.942Z,31.45
2018-06-17T15:30:25.780Z,31.37
2018-06-17T15:31:35.888Z,31.47
2018-06-17T15:32:46.005Z,31.34
2018-06-17T15:33:56.157Z,31.43
2018-06-17T15:35:06.305Z,31.37
2018-06-17T15:36:16.410Z,31.4